sensor_id;sensor_type;location;lat;lon;timestamp;temperature;humidity
76291;DHT22;65100;46.884;17.410;2023-08-12T00:02:09;15.15;81.82
76291;DHT22;65100;46.884;17.410;2023-08-12T00:04:34;15.18;81.56
76291;DHT22;65100;46.884;17.410;2023-08-12T00:06:59;15.14;81.72
76291;DHT22;65100;46.884;17.410;2023-08-12T00:09:25;15.09;81.45
76291;DHT22;65100;46.884;17.410;2023-08-12T00:11:50;14.77;82.59
76291;DHT22;65100;46.884;17.410;2023-08-12T00:14:16;14.74;83.66
76291;DHT22;65100;46.884;17.410;2023-08-12T00:16:41;14.95;82.71
76291;DHT22;65100;46.884;17.410;2023-08-12T00:19:07;15.09;81.42
76291;DHT22;65100;46.884;17.410;2023-08-12T00:21:33;15.11;81.42
76291;DHT22;65100;46.884;17.410;2023-08-12T00:23:59;15.11;81.40
76291;DHT22;65100;46.884;17.410;2023-08-12T00:26:24;15.02;81.10
76291;DHT22;65100;46.884;17.410;2023-08-12T00:28:50;14.97;81.92
76291;DHT22;65100;46.884;17.410;2023-08-12T00:31:16;14.94;82.08
76291;DHT22;65100;46.884;17.410;2023-08-12T00:33:42;14.87;81.80
76291;DHT22;65100;46.884;17.410;2023-08-12T00:36:07;14.80;81.84
76291;DHT22;65100;46.884;17.410;2023-08-12T00:38:33;14.61;82.04
76291;DHT22;65100;46.884;17.410;2023-08-12T00:40:58;14.51;83.07
76291;DHT22;65100;46.884;17.410;2023-08-12T00:43:23;14.19;84.86
76291;DHT22;65100;46.884;17.410;2023-08-12T00:45:49;14.05;84.92
76291;DHT22;65100;46.884;17.410;2023-08-12T00:48:16;14.44;83.72
76291;DHT22;65100;46.884;17.410;2023-08-12T00:50:42;14.45;84.11
76291;DHT22;65100;46.884;17.410;2023-08-12T00:53:09;14.68;83.97
76291;DHT22;65100;46.884;17.410;2023-08-12T00:55:35;14.77;83.53
76291;DHT22;65100;46.884;17.410;2023-08-12T00:58:02;14.89;82.21
76291;DHT22;65100;46.884;17.410;2023-08-12T01:00:27;14.94;81.79
76291;DHT22;65100;46.884;17.410;2023-08-12T01:02:53;14.80;81.96
76291;DHT22;65100;46.884;17.410;2023-08-12T01:05:19;14.73;81.89
76291;DHT22;65100;46.884;17.410;2023-08-12T01:07:45;14.73;82.05
76291;DHT22;65100;46.884;17.410;2023-08-12T01:10:12;14.59;82.53
76291;DHT22;65100;46.884;17.410;2023-08-12T01:12:52;14.13;82.85
76291;DHT22;65100;46.884;17.410;2023-08-12T01:15:21;13.93;83.52
76291;DHT22;65100;46.884;17.410;2023-08-12T01:17:47;14.10;85.20
76291;DHT22;65100;46.884;17.410;2023-08-12T01:20:18;14.45;83.19
76291;DHT22;65100;46.884;17.410;2023-08-12T01:22:56;14.60;82.83
76291;DHT22;65100;46.884;17.410;2023-08-12T01:25:23;14.60;83.08
76291;DHT22;65100;46.884;17.410;2023-08-12T01:27:49;14.71;82.51
76291;DHT22;65100;46.884;17.410;2023-08-12T01:30:15;14.56;82.75
76291;DHT22;65100;46.884;17.410;2023-08-12T01:35:43;14.59;82.67
76291;DHT22;65100;46.884;17.410;2023-08-12T01:38:11;14.64;82.74
76291;DHT22;65100;46.884;17.410;2023-08-12T01:40:38;14.67;82.36
76291;DHT22;65100;46.884;17.410;2023-08-12T01:43:04;14.64;82.17
76291;DHT22;65100;46.884;17.410;2023-08-12T01:45:31;14.75;82.54
76291;DHT22;65100;46.884;17.410;2023-08-12T01:48:00;14.77;81.96
76291;DHT22;65100;46.884;17.410;2023-08-12T01:50:25;14.71;81.62
76291;DHT22;65100;46.884;17.410;2023-08-12T01:52:51;14.61;81.33
76291;DHT22;65100;46.884;17.410;2023-08-12T01:55:16;14.60;81.44
76291;DHT22;65100;46.884;17.410;2023-08-12T01:57:42;14.45;81.89
76291;DHT22;65100;46.884;17.410;2023-08-12T02:00:08;14.38;82.03
76291;DHT22;65100;46.884;17.410;2023-08-12T02:02:33;13.99;83.02
76291;DHT22;65100;46.884;17.410;2023-08-12T02:04:59;14.10;83.34
76291;DHT22;65100;46.884;17.410;2023-08-12T02:07:24;14.09;84.08
76291;DHT22;65100;46.884;17.410;2023-08-12T02:09:50;14.27;84.04
76291;DHT22;65100;46.884;17.410;2023-08-12T02:12:15;14.30;83.68
76291;DHT22;65100;46.884;17.410;2023-08-12T02:14:41;14.31;82.55
76291;DHT22;65100;46.884;17.410;2023-08-12T02:17:07;14.23;83.82
76291;DHT22;65100;46.884;17.410;2023-08-12T02:19:33;14.16;83.88
76291;DHT22;65100;46.884;17.410;2023-08-12T02:21:59;14.26;83.41
76291;DHT22;65100;46.884;17.410;2023-08-12T02:24:24;14.31;83.53
76291;DHT22;65100;46.884;17.410;2023-08-12T02:26:50;14.41;83.38
76291;DHT22;65100;46.884;17.410;2023-08-12T02:29:15;14.41;83.43
76291;DHT22;65100;46.884;17.410;2023-08-12T02:31:40;14.41;82.96
76291;DHT22;65100;46.884;17.410;2023-08-12T02:34:06;14.33;82.62
76291;DHT22;65100;46.884;17.410;2023-08-12T02:36:32;14.26;82.54
76291;DHT22;65100;46.884;17.410;2023-08-12T02:38:57;14.23;82.62
76291;DHT22;65100;46.884;17.410;2023-08-12T02:41:22;14.09;84.35
76291;DHT22;65100;46.884;17.410;2023-08-12T02:43:48;14.19;83.48
76291;DHT22;65100;46.884;17.410;2023-08-12T02:46:13;14.29;83.09
76291;DHT22;65100;46.884;17.410;2023-08-12T02:48:41;14.34;82.81
76291;DHT22;65100;46.884;17.410;2023-08-12T02:51:06;14.27;82.26
76291;DHT22;65100;46.884;17.410;2023-08-12T02:53:32;14.31;82.73
76291;DHT22;65100;46.884;17.410;2023-08-12T02:55:57;14.21;82.60
76291;DHT22;65100;46.884;17.410;2023-08-12T02:58:23;14.14;83.33
76291;DHT22;65100;46.884;17.410;2023-08-12T03:00:48;14.10;83.33
76291;DHT22;65100;46.884;17.410;2023-08-12T03:03:13;14.06;83.14
76291;DHT22;65100;46.884;17.410;2023-08-12T03:05:39;13.51;83.90
76291;DHT22;65100;46.884;17.410;2023-08-12T03:08:06;13.51;85.84
76291;DHT22;65100;46.884;17.410;2023-08-12T03:10:33;13.61;84.06
76291;DHT22;65100;46.884;17.410;2023-08-12T03:12:59;13.16;85.13
76291;DHT22;65100;46.884;17.410;2023-08-12T03:15:25;13.29;87.56
76291;DHT22;65100;46.884;17.410;2023-08-12T03:17:50;13.89;85.06
76291;DHT22;65100;46.884;17.410;2023-08-12T03:20:16;14.14;83.65
76291;DHT22;65100;46.884;17.410;2023-08-12T03:22:41;14.13;83.54
76291;DHT22;65100;46.884;17.410;2023-08-12T03:25:07;13.76;83.56
76291;DHT22;65100;46.884;17.410;2023-08-12T03:27:32;13.66;84.76
76291;DHT22;65100;46.884;17.410;2023-08-12T03:29:58;13.99;84.22
76291;DHT22;65100;46.884;17.410;2023-08-12T03:32:26;14.13;83.37
76291;DHT22;65100;46.884;17.410;2023-08-12T03:34:52;14.29;82.96
76291;DHT22;65100;46.884;17.410;2023-08-12T03:37:18;14.16;82.50
76291;DHT22;65100;46.884;17.410;2023-08-12T03:39:44;14.13;82.71
76291;DHT22;65100;46.884;17.410;2023-08-12T03:42:09;14.14;82.22
76291;DHT22;65100;46.884;17.410;2023-08-12T03:44:35;14.16;82.41
76291;DHT22;65100;46.884;17.410;2023-08-12T03:47:00;14.12;82.36
76291;DHT22;65100;46.884;17.410;2023-08-12T03:49:26;14.06;82.10
76291;DHT22;65100;46.884;17.410;2023-08-12T03:51:51;13.90;83.20
76291;DHT22;65100;46.884;17.410;2023-08-12T03:54:17;13.44;83.88
76291;DHT22;65100;46.884;17.410;2023-08-12T03:56:43;13.67;84.57
76291;DHT22;65100;46.884;17.410;2023-08-12T03:59:08;13.99;83.68
76291;DHT22;65100;46.884;17.410;2023-08-12T04:01:34;14.09;83.11
76291;DHT22;65100;46.884;17.410;2023-08-12T04:03:59;14.19;82.71
76291;DHT22;65100;46.884;17.410;2023-08-12T04:06:24;14.27;82.21
76291;DHT22;65100;46.884;17.410;2023-08-12T04:08:50;14.43;81.91
76291;DHT22;65100;46.884;17.410;2023-08-12T04:11:15;14.64;81.71
76291;DHT22;65100;46.884;17.410;2023-08-12T04:13:41;15.27;80.17
76291;DHT22;65100;46.884;17.410;2023-08-12T04:16:06;15.70;77.91
76291;DHT22;65100;46.884;17.410;2023-08-12T04:18:32;16.00;76.28
76291;DHT22;65100;46.884;17.410;2023-08-12T04:20:57;16.24;75.44
76291;DHT22;65100;46.884;17.410;2023-08-12T04:23:22;16.47;75.11
76291;DHT22;65100;46.884;17.410;2023-08-12T04:25:49;16.75;74.50
76291;DHT22;65100;46.884;17.410;2023-08-12T04:28:15;17.27;74.11
76291;DHT22;65100;46.884;17.410;2023-08-12T04:30:44;17.75;73.14
76291;DHT22;65100;46.884;17.410;2023-08-12T04:33:11;17.76;72.33
76291;DHT22;65100;46.884;17.410;2023-08-12T04:35:37;17.55;72.29
76291;DHT22;65100;46.884;17.410;2023-08-12T04:38:02;17.97;72.34
76291;DHT22;65100;46.884;17.410;2023-08-12T04:40:28;18.90;69.33
76291;DHT22;65100;46.884;17.410;2023-08-12T04:42:53;19.44;66.90
76291;DHT22;65100;46.884;17.410;2023-08-12T04:45:19;19.04;67.60
76291;DHT22;65100;46.884;17.410;2023-08-12T04:47:44;19.19;69.14
76291;DHT22;65100;46.884;17.410;2023-08-12T04:50:10;19.85;66.94
76291;DHT22;65100;46.884;17.410;2023-08-12T04:52:35;19.76;67.33
76291;DHT22;65100;46.884;17.410;2023-08-12T04:55:01;19.22;68.64
76291;DHT22;65100;46.884;17.410;2023-08-12T04:57:26;18.39;71.19
76291;DHT22;65100;46.884;17.410;2023-08-12T04:59:53;18.64;71.82
76291;DHT22;65100;46.884;17.410;2023-08-12T05:02:18;18.40;72.08
76291;DHT22;65100;46.884;17.410;2023-08-12T05:04:49;18.75;72.76
76291;DHT22;65100;46.884;17.410;2023-08-12T05:07:15;18.85;71.86
76291;DHT22;65100;46.884;17.410;2023-08-12T05:09:41;18.60;72.74
76291;DHT22;65100;46.884;17.410;2023-08-12T05:12:09;18.44;72.75
76291;DHT22;65100;46.884;17.410;2023-08-12T05:14:34;18.34;74.49
76291;DHT22;65100;46.884;17.410;2023-08-12T05:17:00;18.54;73.97
76291;DHT22;65100;46.884;17.410;2023-08-12T05:19:25;18.40;73.91
76291;DHT22;65100;46.884;17.410;2023-08-12T05:21:50;18.34;74.44
76291;DHT22;65100;46.884;17.410;2023-08-12T05:24:16;18.78;71.58
76291;DHT22;65100;46.884;17.410;2023-08-12T05:26:42;18.17;73.53
76291;DHT22;65100;46.884;17.410;2023-08-12T05:29:07;18.57;73.99
76291;DHT22;65100;46.884;17.410;2023-08-12T05:31:33;18.83;72.42
76291;DHT22;65100;46.884;17.410;2023-08-12T05:33:58;19.04;72.39
76291;DHT22;65100;46.884;17.410;2023-08-12T05:36:23;19.05;71.67
76291;DHT22;65100;46.884;17.410;2023-08-12T05:38:49;19.42;70.57
76291;DHT22;65100;46.884;17.410;2023-08-12T05:41:14;19.63;70.06
76291;DHT22;65100;46.884;17.410;2023-08-12T05:43:40;20.20;68.09
76291;DHT22;65100;46.884;17.410;2023-08-12T05:46:05;19.83;68.95
76291;DHT22;65100;46.884;17.410;2023-08-12T05:48:31;20.08;68.02
76291;DHT22;65100;46.884;17.410;2023-08-12T05:50:56;20.16;68.36
76291;DHT22;65100;46.884;17.410;2023-08-12T05:53:22;20.51;67.49
76291;DHT22;65100;46.884;17.410;2023-08-12T05:55:48;21.11;64.94
76291;DHT22;65100;46.884;17.410;2023-08-12T05:58:13;21.42;64.54
76291;DHT22;65100;46.884;17.410;2023-08-12T06:00:39;21.55;64.48
76291;DHT22;65100;46.884;17.410;2023-08-12T06:03:04;21.96;63.05
76291;DHT22;65100;46.884;17.410;2023-08-12T06:05:29;21.72;61.80
76291;DHT22;65100;46.884;17.410;2023-08-12T06:07:55;22.30;60.85
76291;DHT22;65100;46.884;17.410;2023-08-12T06:10:20;22.68;59.87
76291;DHT22;65100;46.884;17.410;2023-08-12T06:12:46;23.10;59.60
76291;DHT22;65100;46.884;17.410;2023-08-12T06:15:11;24.20;56.62
76291;DHT22;65100;46.884;17.410;2023-08-12T06:17:37;24.83;54.88
76291;DHT22;65100;46.884;17.410;2023-08-12T06:20:02;24.19;56.37
76291;DHT22;65100;46.884;17.410;2023-08-12T06:22:28;23.38;58.21
76291;DHT22;65100;46.884;17.410;2023-08-12T06:24:53;23.92;57.53
76291;DHT22;65100;46.884;17.410;2023-08-12T06:27:19;24.93;57.24
76291;DHT22;65100;46.884;17.410;2023-08-12T06:29:46;25.80;54.82
76291;DHT22;65100;46.884;17.410;2023-08-12T06:32:12;26.42;50.59
76291;DHT22;65100;46.884;17.410;2023-08-12T06:34:40;25.31;52.79
76291;DHT22;65100;46.884;17.410;2023-08-12T06:37:05;25.20;54.38
76291;DHT22;65100;46.884;17.410;2023-08-12T06:39:31;25.61;54.06
76291;DHT22;65100;46.884;17.410;2023-08-12T06:41:56;25.61;52.95
76291;DHT22;65100;46.884;17.410;2023-08-12T06:44:21;25.07;52.68
76291;DHT22;65100;46.884;17.410;2023-08-12T06:46:47;25.33;54.22
76291;DHT22;65100;46.884;17.410;2023-08-12T06:49:12;25.75;53.98
76291;DHT22;65100;46.884;17.410;2023-08-12T06:51:38;25.37;55.69
76291;DHT22;65100;46.884;17.410;2023-08-12T06:54:03;25.51;54.42
76291;DHT22;65100;46.884;17.410;2023-08-12T06:56:29;26.15;54.80
76291;DHT22;65100;46.884;17.410;2023-08-12T06:58:55;28.04;48.69
76291;DHT22;65100;46.884;17.410;2023-08-12T07:01:21;28.76;46.56
76291;DHT22;65100;46.884;17.410;2023-08-12T07:03:46;28.06;48.77
76291;DHT22;65100;46.884;17.410;2023-08-12T07:06:12;27.30;48.82
76291;DHT22;65100;46.884;17.410;2023-08-12T07:08:37;27.13;50.35
76291;DHT22;65100;46.884;17.410;2023-08-12T07:11:03;27.30;48.78
76291;DHT22;65100;46.884;17.410;2023-08-12T07:13:29;27.40;47.92
76291;DHT22;65100;46.884;17.410;2023-08-12T07:15:55;26.97;51.60
76291;DHT22;65100;46.884;17.410;2023-08-12T07:18:41;27.58;48.73
76291;DHT22;65100;46.884;17.410;2023-08-12T07:21:27;27.77;48.91
76291;DHT22;65100;46.884;17.410;2023-08-12T07:23:52;27.38;46.62
76291;DHT22;65100;46.884;17.410;2023-08-12T07:26:17;27.71;46.85
76291;DHT22;65100;46.884;17.410;2023-08-12T07:28:43;28.70;46.46
76291;DHT22;65100;46.884;17.410;2023-08-12T07:31:08;30.05;44.06
76291;DHT22;65100;46.884;17.410;2023-08-12T07:33:34;28.95;44.70
76291;DHT22;65100;46.884;17.410;2023-08-12T07:36:01;28.38;47.47
76291;DHT22;65100;46.884;17.410;2023-08-12T07:38:26;28.70;46.89
76291;DHT22;65100;46.884;17.410;2023-08-12T07:40:52;29.09;44.55
76291;DHT22;65100;46.884;17.410;2023-08-12T07:43:17;29.02;46.94
76291;DHT22;65100;46.884;17.410;2023-08-12T07:45:43;29.60;45.05
76291;DHT22;65100;46.884;17.410;2023-08-12T07:48:08;29.60;45.28
76291;DHT22;65100;46.884;17.410;2023-08-12T07:50:34;29.34;45.30
76291;DHT22;65100;46.884;17.410;2023-08-12T07:53:00;30.49;42.11
76291;DHT22;65100;46.884;17.410;2023-08-12T07:55:25;30.17;43.93
76291;DHT22;65100;46.884;17.410;2023-08-12T07:57:51;30.33;41.65
76291;DHT22;65100;46.884;17.410;2023-08-12T08:00:16;30.83;39.51
76291;DHT22;65100;46.884;17.410;2023-08-12T08:02:42;30.38;40.20
76291;DHT22;65100;46.884;17.410;2023-08-12T08:05:07;30.21;43.93
76291;DHT22;65100;46.884;17.410;2023-08-12T08:07:33;30.24;44.23
76291;DHT22;65100;46.884;17.410;2023-08-12T08:09:59;29.29;47.05
76291;DHT22;65100;46.884;17.410;2023-08-12T08:12:24;28.01;48.98
76291;DHT22;65100;46.884;17.410;2023-08-12T08:14:50;27.55;50.03
76291;DHT22;65100;46.884;17.410;2023-08-12T08:17:15;26.56;51.39
76291;DHT22;65100;46.884;17.410;2023-08-12T08:19:41;27.11;52.20
76291;DHT22;65100;46.884;17.410;2023-08-12T08:22:06;27.26;50.28
76291;DHT22;65100;46.884;17.410;2023-08-12T08:24:31;27.10;51.96
76291;DHT22;65100;46.884;17.410;2023-08-12T08:26:57;27.47;51.29
76291;DHT22;65100;46.884;17.410;2023-08-12T08:29:22;27.58;48.24
76291;DHT22;65100;46.884;17.410;2023-08-12T08:31:48;27.78;49.15
76291;DHT22;65100;46.884;17.410;2023-08-12T08:34:14;27.80;47.89
76291;DHT22;65100;46.884;17.410;2023-08-12T08:36:40;27.41;49.47
76291;DHT22;65100;46.884;17.410;2023-08-12T08:39:06;27.70;45.14
76291;DHT22;65100;46.884;17.410;2023-08-12T08:41:31;27.29;47.58
76291;DHT22;65100;46.884;17.410;2023-08-12T08:44:02;27.38;47.60
76291;DHT22;65100;46.884;17.410;2023-08-12T08:46:29;27.02;48.54
76291;DHT22;65100;46.884;17.410;2023-08-12T08:48:55;26.87;51.19
76291;DHT22;65100;46.884;17.410;2023-08-12T08:51:24;26.70;48.72
76291;DHT22;65100;46.884;17.410;2023-08-12T08:53:53;26.49;50.36
76291;DHT22;65100;46.884;17.410;2023-08-12T08:56:19;26.59;50.37
76291;DHT22;65100;46.884;17.410;2023-08-12T08:58:46;26.64;50.16
76291;DHT22;65100;46.884;17.410;2023-08-12T09:01:11;26.36;51.28
76291;DHT22;65100;46.884;17.410;2023-08-12T09:03:38;26.66;50.41
76291;DHT22;65100;46.884;17.410;2023-08-12T09:06:04;26.42;50.65
76291;DHT22;65100;46.884;17.410;2023-08-12T09:08:31;26.43;53.72
76291;DHT22;65100;46.884;17.410;2023-08-12T09:10:59;26.78;51.33
76291;DHT22;65100;46.884;17.410;2023-08-12T09:13:25;26.53;49.52
76291;DHT22;65100;46.884;17.410;2023-08-12T09:15:50;26.70;48.38
76291;DHT22;65100;46.884;17.410;2023-08-12T09:18:16;26.69;48.69
76291;DHT22;65100;46.884;17.410;2023-08-12T09:20:42;26.35;47.08
76291;DHT22;65100;46.884;17.410;2023-08-12T09:23:09;26.43;48.81
76291;DHT22;65100;46.884;17.410;2023-08-12T09:25:41;26.29;39.98
76291;DHT22;65100;46.884;17.410;2023-08-12T09:28:09;26.45;45.34
76291;DHT22;65100;46.884;17.410;2023-08-12T09:30:34;26.35;43.06
76291;DHT22;65100;46.884;17.410;2023-08-12T09:33:07;26.75;43.91
76291;DHT22;65100;46.884;17.410;2023-08-12T09:35:35;26.96;45.51
76291;DHT22;65100;46.884;17.410;2023-08-12T09:38:05;26.82;44.23
76291;DHT22;65100;46.884;17.410;2023-08-12T09:40:32;26.87;45.43
76291;DHT22;65100;46.884;17.410;2023-08-12T09:42:58;26.63;44.80
76291;DHT22;65100;46.884;17.410;2023-08-12T09:45:25;26.52;44.44
76291;DHT22;65100;46.884;17.410;2023-08-12T09:47:51;26.56;43.76
76291;DHT22;65100;46.884;17.410;2023-08-12T09:50:17;26.62;46.48
76291;DHT22;65100;46.884;17.410;2023-08-12T09:52:42;26.68;45.86
76291;DHT22;65100;46.884;17.410;2023-08-12T09:55:08;26.72;44.46
76291;DHT22;65100;46.884;17.410;2023-08-12T09:57:38;26.83;43.87
76291;DHT22;65100;46.884;17.410;2023-08-12T10:00:06;26.69;43.95
76291;DHT22;65100;46.884;17.410;2023-08-12T10:02:38;26.68;41.42
76291;DHT22;65100;46.884;17.410;2023-08-12T10:05:05;26.83;46.06
76291;DHT22;65100;46.884;17.410;2023-08-12T10:07:31;26.66;41.42
76291;DHT22;65100;46.884;17.410;2023-08-12T10:09:56;26.11;41.18
76291;DHT22;65100;46.884;17.410;2023-08-12T10:12:22;26.26;44.35
76291;DHT22;65100;46.884;17.410;2023-08-12T10:14:48;26.45;43.92
76291;DHT22;65100;46.884;17.410;2023-08-12T10:17:14;26.24;41.46
76291;DHT22;65100;46.884;17.410;2023-08-12T10:19:44;26.21;45.73
76291;DHT22;65100;46.884;17.410;2023-08-12T10:22:10;26.31;43.62
76291;DHT22;65100;46.884;17.410;2023-08-12T10:24:36;26.29;42.29
76291;DHT22;65100;46.884;17.410;2023-08-12T10:27:03;26.18;42.84
76291;DHT22;65100;46.884;17.410;2023-08-12T10:29:29;26.29;46.03
76291;DHT22;65100;46.884;17.410;2023-08-12T10:31:56;26.39;44.16
76291;DHT22;65100;46.884;17.410;2023-08-12T10:34:23;26.43;44.04
76291;DHT22;65100;46.884;17.410;2023-08-12T10:36:57;26.16;42.64
76291;DHT22;65100;46.884;17.410;2023-08-12T10:39:26;26.25;43.65
76291;DHT22;65100;46.884;17.410;2023-08-12T10:41:54;26.43;43.82
76291;DHT22;65100;46.884;17.410;2023-08-12T10:44:20;26.63;43.16
76291;DHT22;65100;46.884;17.410;2023-08-12T10:46:52;26.59;44.08
76291;DHT22;65100;46.884;17.410;2023-08-12T10:49:20;26.73;43.29
76291;DHT22;65100;46.884;17.410;2023-08-12T11:04:52;26.72;44.31
76291;DHT22;65100;46.884;17.410;2023-08-12T11:07:19;26.93;41.47
76291;DHT22;65100;46.884;17.410;2023-08-12T11:09:45;27.17;41.19
76291;DHT22;65100;46.884;17.410;2023-08-12T11:12:11;26.82;41.77
76291;DHT22;65100;46.884;17.410;2023-08-12T11:15:09;26.86;42.74
76291;DHT22;65100;46.884;17.410;2023-08-12T11:17:40;26.60;41.97
76291;DHT22;65100;46.884;17.410;2023-08-12T11:20:10;26.55;44.08
76291;DHT22;65100;46.884;17.410;2023-08-12T11:22:38;26.73;44.00
76291;DHT22;65100;46.884;17.410;2023-08-12T11:25:08;26.80;45.03
76291;DHT22;65100;46.884;17.410;2023-08-12T11:27:54;26.70;42.32
76291;DHT22;65100;46.884;17.410;2023-08-12T11:30:20;26.72;43.86
76291;DHT22;65100;46.884;17.410;2023-08-12T11:32:54;26.80;44.22
76291;DHT22;65100;46.884;17.410;2023-08-12T11:35:21;26.89;45.93
76291;DHT22;65100;46.884;17.410;2023-08-12T11:37:49;27.26;45.15
76291;DHT22;65100;46.884;17.410;2023-08-12T11:40:16;27.14;43.07
76291;DHT22;65100;46.884;17.410;2023-08-12T11:42:44;27.11;44.02
76291;DHT22;65100;46.884;17.410;2023-08-12T11:45:10;27.07;42.81
76291;DHT22;65100;46.884;17.410;2023-08-12T11:47:37;27.04;41.47
76291;DHT22;65100;46.884;17.410;2023-08-12T11:50:07;26.99;41.75
76291;DHT22;65100;46.884;17.410;2023-08-12T11:52:34;26.96;43.85
76291;DHT22;65100;46.884;17.410;2023-08-12T11:55:00;27.06;43.72
76291;DHT22;65100;46.884;17.410;2023-08-12T11:57:26;27.07;45.99
76291;DHT22;65100;46.884;17.410;2023-08-12T11:59:58;27.10;43.06
76291;DHT22;65100;46.884;17.410;2023-08-12T12:02:24;27.00;42.25
76291;DHT22;65100;46.884;17.410;2023-08-12T12:04:51;26.93;46.65
76291;DHT22;65100;46.884;17.410;2023-08-12T12:07:18;26.86;43.57
76291;DHT22;65100;46.884;17.410;2023-08-12T12:09:44;26.97;41.94
76291;DHT22;65100;46.884;17.410;2023-08-12T12:12:10;27.06;45.65
76291;DHT22;65100;46.884;17.410;2023-08-12T12:14:36;27.11;41.34
76291;DHT22;65100;46.884;17.410;2023-08-12T12:17:07;26.94;40.66
76291;DHT22;65100;46.884;17.410;2023-08-12T12:19:32;26.97;43.44
76291;DHT22;65100;46.884;17.410;2023-08-12T12:22:02;26.92;42.67
76291;DHT22;65100;46.884;17.410;2023-08-12T12:24:29;27.04;47.51
76291;DHT22;65100;46.884;17.410;2023-08-12T12:26:56;26.86;41.84
76291;DHT22;65100;46.884;17.410;2023-08-12T12:29:22;26.97;44.33
76291;DHT22;65100;46.884;17.410;2023-08-12T12:31:48;26.96;44.14
76291;DHT22;65100;46.884;17.410;2023-08-12T12:34:13;26.93;43.03
76291;DHT22;65100;46.884;17.410;2023-08-12T12:36:40;26.96;44.30
76291;DHT22;65100;46.884;17.410;2023-08-12T12:39:06;26.97;43.10
76291;DHT22;65100;46.884;17.410;2023-08-12T12:41:32;27.00;45.07
76291;DHT22;65100;46.884;17.410;2023-08-12T12:44:00;26.99;43.49
76291;DHT22;65100;46.884;17.410;2023-08-12T12:46:26;26.94;44.24
76291;DHT22;65100;46.884;17.410;2023-08-12T12:48:51;26.75;43.09
76291;DHT22;65100;46.884;17.410;2023-08-12T12:51:16;26.90;42.95
76291;DHT22;65100;46.884;17.410;2023-08-12T12:53:42;26.73;45.43
76291;DHT22;65100;46.884;17.410;2023-08-12T12:56:08;26.70;45.46
76291;DHT22;65100;46.884;17.410;2023-08-12T12:58:34;26.75;44.63
76291;DHT22;65100;46.884;17.410;2023-08-12T13:01:00;26.96;41.10
76291;DHT22;65100;46.884;17.410;2023-08-12T13:03:26;26.96;43.28
76291;DHT22;65100;46.884;17.410;2023-08-12T13:05:52;27.11;42.09
76291;DHT22;65100;46.884;17.410;2023-08-12T13:08:17;27.13;44.97
76291;DHT22;65100;46.884;17.410;2023-08-12T13:10:43;26.83;45.08
76291;DHT22;65100;46.884;17.410;2023-08-12T13:13:09;26.72;47.16
76291;DHT22;65100;46.884;17.410;2023-08-12T13:15:35;26.83;45.32
76291;DHT22;65100;46.884;17.410;2023-08-12T13:18:00;26.90;46.47
76291;DHT22;65100;46.884;17.410;2023-08-12T13:20:26;26.89;47.98
76291;DHT22;65100;46.884;17.410;2023-08-12T13:22:51;26.84;45.34
76291;DHT22;65100;46.884;17.410;2023-08-12T13:25:17;26.75;45.10
76291;DHT22;65100;46.884;17.410;2023-08-12T13:27:42;26.76;42.28
76291;DHT22;65100;46.884;17.410;2023-08-12T13:30:08;26.89;45.57
76291;DHT22;65100;46.884;17.410;2023-08-12T13:32:36;26.92;42.91
76291;DHT22;65100;46.884;17.410;2023-08-12T13:35:02;26.73;43.02
76291;DHT22;65100;46.884;17.410;2023-08-12T13:37:28;26.87;46.38
76291;DHT22;65100;46.884;17.410;2023-08-12T13:39:53;26.76;47.19
76291;DHT22;65100;46.884;17.410;2023-08-12T13:42:18;26.72;46.26
76291;DHT22;65100;46.884;17.410;2023-08-12T13:44:44;26.70;45.04
76291;DHT22;65100;46.884;17.410;2023-08-12T13:47:09;26.63;48.61
76291;DHT22;65100;46.884;17.410;2023-08-12T13:49:35;26.64;46.34
76291;DHT22;65100;46.884;17.410;2023-08-12T13:52:00;26.76;45.24
76291;DHT22;65100;46.884;17.410;2023-08-12T13:54:26;26.73;46.24
76291;DHT22;65100;46.884;17.410;2023-08-12T13:56:51;26.64;46.30
76291;DHT22;65100;46.884;17.410;2023-08-12T13:59:16;26.75;46.32
76291;DHT22;65100;46.884;17.410;2023-08-12T14:01:42;26.84;47.62
76291;DHT22;65100;46.884;17.410;2023-08-12T14:04:07;26.87;46.96
76291;DHT22;65100;46.884;17.410;2023-08-12T14:06:33;26.93;46.13
76291;DHT22;65100;46.884;17.410;2023-08-12T14:08:58;26.79;47.73
76291;DHT22;65100;46.884;17.410;2023-08-12T14:11:24;26.79;49.22
76291;DHT22;65100;46.884;17.410;2023-08-12T14:13:49;26.96;46.64
76291;DHT22;65100;46.884;17.410;2023-08-12T14:16:14;26.79;46.36
76291;DHT22;65100;46.884;17.410;2023-08-12T14:18:40;26.87;47.50
76291;DHT22;65100;46.884;17.410;2023-08-12T14:21:05;26.82;49.45
76291;DHT22;65100;46.884;17.410;2023-08-12T14:23:31;26.70;47.66
76291;DHT22;65100;46.884;17.410;2023-08-12T14:25:56;26.76;46.67
76291;DHT22;65100;46.884;17.410;2023-08-12T14:28:23;26.72;47.48
76291;DHT22;65100;46.884;17.410;2023-08-12T14:30:48;26.70;46.33
76291;DHT22;65100;46.884;17.410;2023-08-12T14:33:13;26.90;48.61
76291;DHT22;65100;46.884;17.410;2023-08-12T14:35:39;27.02;48.37
76291;DHT22;65100;46.884;17.410;2023-08-12T14:38:04;26.99;47.25
76291;DHT22;65100;46.884;17.410;2023-08-12T14:40:30;26.75;45.93
76291;DHT22;65100;46.884;17.410;2023-08-12T14:42:55;26.84;48.87
76291;DHT22;65100;46.884;17.410;2023-08-12T14:45:21;26.78;47.89
76291;DHT22;65100;46.884;17.410;2023-08-12T14:47:46;26.80;45.70
76291;DHT22;65100;46.884;17.410;2023-08-12T14:50:12;26.78;47.90
76291;DHT22;65100;46.884;17.410;2023-08-12T14:52:37;26.53;48.59
76291;DHT22;65100;46.884;17.410;2023-08-12T14:55:03;26.73;48.68
76291;DHT22;65100;46.884;17.410;2023-08-12T14:57:28;26.75;48.08
76291;DHT22;65100;46.884;17.410;2023-08-12T14:59:54;26.64;48.97
76291;DHT22;65100;46.884;17.410;2023-08-12T15:02:22;26.70;48.08
76291;DHT22;65100;46.884;17.410;2023-08-12T15:04:48;26.62;48.21
76291;DHT22;65100;46.884;17.410;2023-08-12T15:07:14;26.48;48.13
76291;DHT22;65100;46.884;17.410;2023-08-12T15:09:41;26.49;48.32
76291;DHT22;65100;46.884;17.410;2023-08-12T15:12:27;26.53;48.68
76291;DHT22;65100;46.884;17.410;2023-08-12T15:14:53;26.57;49.24
76291;DHT22;65100;46.884;17.410;2023-08-12T15:17:18;26.62;47.61
76291;DHT22;65100;46.884;17.410;2023-08-12T15:19:44;26.46;49.07
76291;DHT22;65100;46.884;17.410;2023-08-12T15:22:09;26.43;48.39
76291;DHT22;65100;46.884;17.410;2023-08-12T15:24:35;26.40;48.72
76291;DHT22;65100;46.884;17.410;2023-08-12T15:27:00;26.32;48.32